Time;durP1;ratioP1;P1;durP2;ratioP2;P2;SDS_P1;SDS_P2;PMS_P1;PMS_P2;Temp;Humidity;BMP_temperature;BMP_pressure;BME280_temperature;BME280_humidity;BME280_pressure;Samples;Min_cycle;Max_cycle;Signal;HPM_P1;HPM_P2
2022/04/19 00:00:27;;;;;;;5.03;3.03;;;13.30;75.70;;;;;;4129446;28;20049;-64
2022/04/19 00:02:28;;;;;;;4.65;3.10;;;13.30;76.00;;;;;;4129196;28;20058;-64
2022/04/19 00:04:28;;;;;;;5.57;3.17;;;13.30;76.40;;;;;;4128444;28;20041;-63
2022/04/19 00:06:29;;;;;;;6.03;3.40;;;13.30;75.70;;;;;;4128399;28;20050;-63
2022/04/19 00:08:30;;;;;;;6.00;3.38;;;13.20;75.90;;;;;;4127996;28;20061;-63
2022/04/19 00:10:31;;;;;;;4.78;3.28;;;13.20;75.70;;;;;;4128927;28;20035;-63
2022/04/19 00:12:32;;;;;;;5.15;3.40;;;13.20;75.70;;;;;;4127899;28;20809;-64
2022/04/19 00:14:34;;;;;;;6.93;3.58;;;13.20;76.00;;;;;;4128275;28;20151;-63
2022/04/19 00:16:38;;;;;;;6.72;3.67;;;13.20;76.30;;;;;;4127428;28;20173;-63
2022/04/19 00:18:39;;;;;;;4.63;3.38;;;13.20;76.20;;;;;;4137483;28;20100;-63
2022/04/19 00:20:42;;;;;;;6.38;3.67;;;13.20;75.90;;;;;;4127245;28;20038;-63
2022/04/19 00:22:43;;;;;;;5.30;3.30;;;13.20;75.00;;;;;;4130201;28;20031;-64
2022/04/19 00:24:43;;;;;;;4.93;3.53;;;13.20;75.40;;;;;;4132051;28;20149;-64
2022/04/19 00:26:44;;;;;;;5.00;3.45;;;13.10;76.00;;;;;;4128739;28;20192;-63
2022/04/19 00:28:47;;;;;;;6.32;3.60;;;13.10;76.70;;;;;;4128301;28;20053;-64
2022/04/19 00:30:48;;;;;;;5.10;3.20;;;13.10;75.90;;;;;;4125252;28;20048;-64
2022/04/19 00:32:48;;;;;;;5.85;3.30;;;13.10;76.40;;;;;;4129159;28;20026;-63
2022/04/19 00:34:49;;;;;;;6.07;3.90;;;13.10;76.70;;;;;;4131189;28;20121;-63
2022/04/19 00:36:49;;;;;;;7.90;3.97;;;13.10;77.50;;;;;;4142511;28;20413;-63
2022/04/19 00:38:50;;;;;;;4.82;3.80;;;13.10;77.30;;;;;;4128899;28;20548;-63
2022/04/19 00:40:50;;;;;;;7.13;4.20;;;13.10;77.50;;;;;;4127507;28;20035;-63
2022/04/19 00:42:54;;;;;;;8.15;4.13;;;13.00;77.30;;;;;;4135516;28;20520;-64
2022/04/19 00:44:55;;;;;;;6.90;4.28;;;13.00;77.30;;;;;;4128091;28;20058;-64
2022/04/19 00:46:56;;;;;;;5.90;3.67;;;13.00;77.30;;;;;;4127363;28;20490;-64
2022/04/19 00:48:57;;;;;;;7.05;4.03;;;13.00;76.50;;;;;;4128285;28;20034;-64
2022/04/19 00:50:58;;;;;;;7.03;3.80;;;13.00;77.30;;;;;;4142324;28;20370;-64
2022/04/19 00:52:59;;;;;;;5.57;4.05;;;13.00;77.50;;;;;;4134909;28;20045;-63
2022/04/19 00:55:01;;;;;;;5.50;3.55;;;13.00;76.90;;;;;;4129332;28;20089;-64
2022/04/19 00:57:03;;;;;;;5.40;3.80;;;13.00;77.30;;;;;;4128443;28;20045;-64
2022/04/19 00:59:04;;;;;;;6.10;4.13;;;13.00;77.60;;;;;;4129133;28;20089;-63
2022/04/19 01:01:05;;;;;;;6.85;3.88;;;13.00;77.20;;;;;;4128068;28;20034;-63
2022/04/19 01:03:06;;;;;;;5.45;3.45;;;12.90;76.20;;;;;;4128571;28;20038;-63
2022/04/19 01:05:07;;;;;;;5.63;3.33;;;13.00;74.10;;;;;;4129881;28;20022;-65
2022/04/19 01:07:09;;;;;;;5.05;3.55;;;12.90;73.40;;;;;;4127310;28;20478;-63
2022/04/19 01:09:10;;;;;;;8.50;3.73;;;12.90;73.30;;;;;;4128856;28;20092;-63
2022/04/19 01:13:30;;;;;;;5.53;3.25;;;12.80;74.30;;;;;;4126036;28;20042;-64
2022/04/19 01:15:31;;;;;;;5.88;3.50;;;12.70;75.90;;;;;;4125378;28;20041;-63
2022/04/19 01:17:34;;;;;;;6.00;3.95;;;12.70;75.40;;;;;;4127990;28;20038;-64
2022/04/19 01:19:38;;;;;;;6.45;4.15;;;12.70;75.90;;;;;;4127796;28;20054;-63
2022/04/19 01:21:48;;;;;;;5.00;3.47;;;12.70;76.60;;;;;;4125530;28;20042;-63
2022/04/19 01:23:49;;;;;;;5.95;3.90;;;12.60;77.10;;;;;;4128833;28;20096;-64
2022/04/19 01:25:50;;;;;;;6.05;4.05;;;12.60;78.10;;;;;;4127383;28;20042;-63
2022/04/19 01:27:50;;;;;;;7.10;4.07;;;12.60;78.40;;;;;;4128008;28;20035;-63
2022/04/19 01:29:54;;;;;;;6.90;4.07;;;12.60;78.00;;;;;;4127301;28;20041;-63
2022/04/19 01:31:54;;;;;;;7.03;4.38;;;12.60;78.90;;;;;;4126660;28;20034;-64
2022/04/19 01:33:56;;;;;;;7.57;4.47;;;12.50;78.40;;;;;;4129485;28;20034;-63
2022/04/19 01:35:57;;;;;;;8.70;4.80;;;12.50;79.30;;;;;;4126484;28;20073;-64
2022/04/19 01:37:57;;;;;;;7.20;4.68;;;12.50;79.60;;;;;;4126834;28;20035;-63
2022/04/19 01:40:16;;;;;;;5.88;4.38;;;12.50;78.10;;;;;;4127434;28;20121;-63
2022/04/19 01:42:17;;;;;;;7.88;4.80;;;12.50;77.90;;;;;;4139438;28;20046;-63
2022/04/19 01:44:17;;;;;;;7.75;5.00;;;12.40;77.60;;;;;;4142185;28;20038;-63
2022/04/19 01:46:18;;;;;;;7.22;4.82;;;12.40;77.60;;;;;;4132049;28;20041;-64
2022/04/19 01:48:18;;;;;;;7.22;4.80;;;12.40;77.10;;;;;;4128929;28;20031;-63
2022/04/19 01:50:21;;;;;;;8.27;5.43;;;12.40;77.90;;;;;;4125365;28;20470;-64
2022/04/19 01:52:21;;;;;;;8.02;4.82;;;12.40;78.10;;;;;;4126160;28;20041;-63
2022/04/19 01:54:22;;;;;;;7.72;4.72;;;12.30;78.20;;;;;;4125953;28;20034;-64
2022/04/19 01:56:23;;;;;;;10.07;5.30;;;12.30;79.70;;;;;;4128419;28;20092;-65
2022/04/19 01:58:23;;;;;;;8.50;5.72;;;12.30;79.00;;;;;;4125715;28;20118;-64
2022/04/19 02:00:25;;;;;;;7.07;5.00;;;12.30;79.10;;;;;;4127797;28;20042;-64
2022/04/19 02:02:26;;;;;;;9.85;5.22;;;12.30;79.00;;;;;;4126864;28;20042;-63
2022/04/19 02:04:27;;;;;;;9.88;5.72;;;12.30;78.90;;;;;;4127066;28;20026;-64
2022/04/19 02:06:28;;;;;;;9.23;5.30;;;12.30;78.70;;;;;;4125495;28;20394;-63
2022/04/19 02:08:29;;;;;;;7.25;4.95;;;12.30;80.10;;;;;;4126165;28;20054;-63
2022/04/19 02:10:30;;;;;;;8.00;5.00;;;12.30;80.00;;;;;;4128417;28;20088;-63
2022/04/19 02:12:31;;;;;;;10.70;5.50;;;12.20;80.30;;;;;;4141791;28;20030;-63
2022/04/19 02:14:31;;;;;;;6.50;4.72;;;12.20;79.60;;;;;;4138737;28;20030;-63
2022/04/19 02:16:32;;;;;;;8.60;5.15;;;12.20;80.40;;;;;;4127046;28;20883;-63
2022/04/19 02:18:33;;;;;;;6.95;5.18;;;12.20;80.60;;;;;;4126724;28;20389;-63
2022/04/19 02:20:34;;;;;;;10.25;5.43;;;12.20;80.30;;;;;;4125562;28;20051;-63
2022/04/19 02:22:34;;;;;;;9.10;5.55;;;12.20;80.30;;;;;;4124591;28;20046;-63
2022/04/19 02:24:35;;;;;;;8.75;5.40;;;12.20;79.50;;;;;;4126084;28;20034;-63
2022/04/19 02:26:36;;;;;;;8.93;5.45;;;12.20;79.60;;;;;;4126822;28;20066;-63
2022/04/19 02:28:37;;;;;;;9.65;5.20;;;12.10;79.20;;;;;;4126057;28;20449;-63
2022/04/19 02:30:38;;;;;;;7.88;5.50;;;12.10;78.60;;;;;;4127019;28;20397;-63
2022/04/19 02:32:38;;;;;;;8.85;5.18;;;12.10;78.70;;;;;;4126771;28;20098;-63
2022/04/19 02:34:39;;;;;;;8.43;5.35;;;12.10;79.10;;;;;;4127629;28;20074;-63
2022/04/19 02:36:39;;;;;;;7.55;5.47;;;12.00;80.10;;;;;;4127040;28;20481;-63
2022/04/19 02:38:40;;;;;;;8.23;5.50;;;12.00;79.50;;;;;;4127389;28;20050;-63
2022/04/19 02:40:40;;;;;;;10.63;5.97;;;12.00;79.30;;;;;;4127588;28;20442;-63
2022/04/19 02:42:41;;;;;;;9.40;6.65;;;12.00;79.40;;;;;;4127686;28;20497;-63
2022/04/19 02:44:41;;;;;;;9.13;5.72;;;11.90;79.50;;;;;;4127093;28;20089;-63
2022/04/19 02:46:42;;;;;;;8.65;5.55;;;11.90;79.60;;;;;;4126363;28;20034;-63
2022/04/19 02:48:43;;;;;;;10.07;6.45;;;11.90;79.30;;;;;;4126278;28;20038;-64
2022/04/19 02:50:45;;;;;;;9.02;5.95;;;11.80;80.40;;;;;;4125834;28;20039;-65
2022/04/19 02:52:46;;;;;;;10.70;5.90;;;11.90;80.00;;;;;;4126973;28;20031;-64
2022/04/19 02:54:47;;;;;;;9.20;5.70;;;11.80;80.40;;;;;;4127693;28;20053;-64
2022/04/19 02:56:47;;;;;;;9.80;6.18;;;11.80;79.60;;;;;;4126423;28;20031;-64
2022/04/19 02:58:48;;;;;;;8.35;5.90;;;11.80;79.90;;;;;;4126611;28;20031;-63
2022/04/19 03:00:48;;;;;;;12.75;5.63;;;11.80;80.20;;;;;;4126996;28;20610;-63
2022/04/19 03:02:50;;;;;;;10.38;6.10;;;11.70;80.60;;;;;;4127311;28;20050;-64
2022/04/19 03:04:51;;;;;;;8.90;6.05;;;11.70;80.60;;;;;;4126829;28;20085;-63
2022/04/19 03:06:51;;;;;;;8.68;6.13;;;11.70;81.50;;;;;;4126568;28;20445;-63
2022/04/19 03:08:52;;;;;;;8.60;6.20;;;11.70;82.30;;;;;;4127441;28;20038;-63
2022/04/19 03:10:53;;;;;;;11.05;6.70;;;11.70;82.00;;;;;;4137417;28;20117;-65
2022/04/19 03:12:53;;;;;;;10.65;6.43;;;11.60;81.60;;;;;;4139234;28;20034;-64
2022/04/19 03:14:55;;;;;;;8.80;5.45;;;11.60;81.90;;;;;;4138162;28;20047;-64
2022/04/19 03:16:55;;;;;;;8.60;5.50;;;11.60;80.40;;;;;;4124790;28;20019;-63
2022/04/19 03:18:56;;;;;;;9.40;5.80;;;11.60;80.30;;;;;;4126458;28;20034;-63
2022/04/19 03:20:58;;;;;;;10.45;6.20;;;11.60;78.40;;;;;;4125258;28;20027;-63
2022/04/19 03:27:43;;;;;;;9.05;5.75;;;11.50;79.40;;;;;;4127095;28;20038;-63
2022/04/19 03:29:44;;;;;;;10.15;6.35;;;11.40;79.70;;;;;;4126632;28;20039;-65
2022/04/19 03:31:45;;;;;;;12.45;6.47;;;11.40;80.60;;;;;;4126265;28;20037;-64
2022/04/19 03:33:48;;;;;;;8.98;5.90;;;11.40;81.00;;;;;;4127055;28;20114;-63
2022/04/19 03:35:48;;;;;;;7.78;5.03;;;11.40;82.10;;;;;;4125701;28;20497;-63
2022/04/19 03:37:49;;;;;;;9.57;5.60;;;11.40;82.00;;;;;;4125949;28;20035;-63
2022/04/19 03:39:49;;;;;;;8.95;5.60;;;11.40;79.70;;;;;;4126723;28;20415;-64
2022/04/19 03:41:50;;;;;;;9.02;5.78;;;11.40;79.90;;;;;;4129328;28;20057;-63
2022/04/19 03:43:53;;;;;;;8.15;4.85;;;11.40;81.20;;;;;;4130099;28;20429;-63
2022/04/19 03:45:54;;;;;;;7.40;5.20;;;11.40;81.10;;;;;;4142333;28;20037;-63
2022/04/19 03:47:54;;;;;;;7.40;5.43;;;11.40;79.70;;;;;;4129822;28;20178;-63
2022/04/19 03:49:55;;;;;;;7.95;5.65;;;11.40;80.70;;;;;;4128609;28;20043;-64
2022/04/19 03:51:56;;;;;;;7.78;5.38;;;11.40;81.80;;;;;;4127617;28;20027;-63
2022/04/19 03:53:57;;;;;;;9.40;5.40;;;11.30;82.60;;;;;;4130206;28;20466;-63
2022/04/19 03:56:03;;;;;;;7.90;5.18;;;11.30;82.70;;;;;;4128538;28;20390;-63
2022/04/19 03:58:04;;;;;;;9.90;6.45;;;11.30;83.70;;;;;;4129358;28;20038;-63
2022/04/19 04:00:06;;;;;;;9.50;6.13;;;11.30;82.80;;;;;;4128652;28;20120;-64
2022/04/19 04:02:07;;;;;;;8.63;6.25;;;11.30;82.90;;;;;;4128019;28;20058;-63
2022/04/19 04:04:08;;;;;;;10.63;6.78;;;11.20;82.50;;;;;;4129489;28;20398;-64
2022/04/19 04:06:09;;;;;;;11.02;6.32;;;11.30;83.10;;;;;;4127319;28;20037;-63
2022/04/19 04:08:09;;;;;;;10.88;6.38;;;11.20;83.70;;;;;;4127925;28;20445;-63
2022/04/19 04:10:10;;;;;;;13.07;7.30;;;11.20;83.40;;;;;;4128812;28;20046;-65
2022/04/19 04:12:12;;;;;;;10.50;6.88;;;11.20;83.50;;;;;;4130003;28;20105;-64
2022/04/19 04:14:13;;;;;;;11.75;6.60;;;11.20;82.80;;;;;;4128114;28;21054;-63
2022/04/19 04:16:13;;;;;;;16.10;7.30;;;11.20;84.40;;;;;;4128440;28;20038;-63
2022/04/19 04:18:14;;;;;;;10.65;6.72;;;11.10;85.50;;;;;;4128022;28;20101;-63
2022/04/19 04:20:14;;;;;;;8.75;6.38;;;11.10;85.80;;;;;;4128345;28;20489;-64
2022/04/19 04:22:15;;;;;;;9.65;6.65;;;11.10;85.80;;;;;;4141305;28;20030;-63
2022/04/19 04:24:15;;;;;;;9.50;7.00;;;11.10;84.50;;;;;;4144022;28;20034;-63
2022/04/19 04:26:16;;;;;;;10.93;6.47;;;11.10;84.60;;;;;;4137344;28;20031;-63
2022/04/19 04:28:17;;;;;;;10.15;6.60;;;11.00;85.30;;;;;;4128043;28;20453;-63
2022/04/19 04:30:17;;;;;;;9.43;6.45;;;11.10;84.90;;;;;;4123535;28;20050;-63
2022/04/19 04:32:18;;;;;;;10.32;6.10;;;11.10;84.50;;;;;;4125369;28;20065;-63
2022/04/19 04:34:18;;;;;;;10.85;6.55;;;11.00;84.50;;;;;;4130250;28;20121;-63
2022/04/19 04:36:19;;;;;;;9.35;5.75;;;11.00;84.70;;;;;;4127571;28;20113;-63
2022/04/19 04:38:20;;;;;;;11.98;6.40;;;10.90;83.70;;;;;;4128914;28;20038;-63
2022/04/19 04:40:20;;;;;;;9.50;6.28;;;10.90;83.40;;;;;;4127263;28;20039;-63
2022/04/19 04:42:21;;;;;;;9.55;6.20;;;10.90;84.20;;;;;;4127398;28;20030;-63
2022/04/19 04:44:21;;;;;;;11.15;6.78;;;10.90;84.50;;;;;;4130138;28;20474;-63
2022/04/19 04:51:00;;;;;;;10.50;6.47;;;10.90;84.10;;;;;;4131271;28;20053;-64
2022/04/19 04:53:01;;;;;;;13.93;7.70;;;10.90;82.40;;;;;;4139145;28;20038;-64
2022/04/19 04:55:03;;;;;;;11.20;6.85;;;10.90;83.60;;;;;;4134782;28;20027;-66
2022/04/19 04:57:04;;;;;;;10.70;7.28;;;10.80;81.60;;;;;;4129345;28;20030;-64
2022/04/19 04:59:05;;;;;;;11.68;7.05;;;10.70;81.40;;;;;;4130336;28;20034;-64
2022/04/19 05:01:05;;;;;;;11.50;7.45;;;10.70;82.20;;;;;;4127216;28;20026;-64
2022/04/19 05:03:07;;;;;;;13.55;7.25;;;10.60;82.90;;;;;;4124381;28;20085;-64
2022/04/19 05:05:08;;;;;;;11.50;7.10;;;10.70;84.40;;;;;;4129516;28;20497;-65
2022/04/19 05:07:08;;;;;;;13.30;7.30;;;10.60;85.50;;;;;;4127261;28;20112;-64
2022/04/19 05:09:09;;;;;;;11.63;6.55;;;10.70;86.10;;;;;;4129146;28;20153;-64
2022/04/19 05:11:10;;;;;;;10.55;6.35;;;10.70;85.20;;;;;;4127395;28;20049;-64
2022/04/19 05:13:10;;;;;;;11.45;7.25;;;10.70;85.80;;;;;;4128223;28;20375;-64
2022/04/19 05:15:11;;;;;;;9.95;6.70;;;10.70;86.70;;;;;;4125685;28;20034;-64
2022/04/19 05:17:11;;;;;;;11.93;7.47;;;10.70;86.10;;;;;;4127874;28;20034;-64
2022/04/19 05:19:12;;;;;;;11.77;6.78;;;10.80;87.00;;;;;;4127978;28;20057;-64
2022/04/19 05:21:12;;;;;;;10.35;7.07;;;10.80;86.90;;;;;;4127143;28;20093;-64
2022/04/19 05:23:13;;;;;;;12.65;7.07;;;10.80;86.60;;;;;;4127083;28;20046;-64
2022/04/19 05:25:13;;;;;;;8.65;5.93;;;10.80;87.90;;;;;;4125217;28;20125;-64
2022/04/19 05:27:14;;;;;;;12.38;7.40;;;10.80;87.00;;;;;;4127161;28;20034;-64
2022/04/19 05:29:15;;;;;;;11.02;7.80;;;10.90;86.70;;;;;;4125696;28;20801;-64
2022/04/19 05:31:16;;;;;;;13.20;7.53;;;10.90;85.70;;;;;;4126797;28;20978;-64
2022/04/19 05:33:17;;;;;;;11.88;7.65;;;10.80;84.00;;;;;;4126885;28;20046;-64
2022/04/19 05:35:18;;;;;;;12.10;7.75;;;10.60;83.30;;;;;;4125780;28;20089;-64
2022/04/19 05:37:18;;;;;;;11.70;8.07;;;10.50;84.40;;;;;;4127809;28;20038;-64
2022/04/19 05:39:19;;;;;;;12.85;7.60;;;10.30;85.50;;;;;;4128677;28;20446;-63
2022/04/19 05:41:20;;;;;;;14.18;8.40;;;10.20;87.90;;;;;;4126277;28;20038;-64
2022/04/19 05:43:21;;;;;;;12.30;8.50;;;10.10;89.60;;;;;;4127391;28;20045;-64
2022/04/19 05:45:21;;;;;;;13.98;9.38;;;9.80;89.10;;;;;;4127590;28;20034;-64
2022/04/19 05:47:22;;;;;;;17.33;9.63;;;9.70;89.80;;;;;;4130200;28;20030;-64
2022/04/19 05:49:23;;;;;;;17.08;9.57;;;9.50;89.80;;;;;;4125059;28;20030;-64
2022/04/19 05:51:23;;;;;;;14.68;9.63;;;9.40;90.30;;;;;;4124039;28;20946;-64
2022/04/19 05:53:24;;;;;;;15.32;9.48;;;9.40;90.70;;;;;;4125010;28;20062;-64
2022/04/19 05:55:24;;;;;;;13.93;8.55;;;9.40;91.00;;;;;;4122997;28;20073;-64
2022/04/19 05:57:25;;;;;;;12.05;8.25;;;9.30;91.50;;;;;;4128400;28;20146;-64
2022/04/19 05:59:26;;;;;;;13.05;8.65;;;9.50;92.10;;;;;;4128840;28;20126;-65
2022/04/19 06:04:51;;;;;;;11.95;8.18;;;9.70;92.90;;;;;;4125738;28;20038;-64
2022/04/19 06:06:06;;;;;;;13.00;8.45;;;9.90;93.20;;;;;;4127852;28;20030;-64
2022/04/19 06:08:07;;;;;;;15.57;9.15;;;9.90;92.70;;;;;;4125595;28;20546;-64
2022/04/19 06:10:08;;;;;;;13.10;8.57;;;9.90;92.70;;;;;;4139619;28;20108;-65
2022/04/19 06:12:09;;;;;;;13.93;9.07;;;10.00;93.00;;;;;;4123044;28;20069;-64
2022/04/19 06:14:09;;;;;;;14.50;9.18;;;10.00;93.50;;;;;;4125789;28;20049;-64
2022/04/19 06:16:10;;;;;;;15.13;9.90;;;10.10;93.70;;;;;;4124152;28;20041;-64
2022/04/19 06:18:10;;;;;;;17.17;10.25;;;9.90;92.80;;;;;;4121378;28;20039;-64
2022/04/19 06:20:12;;;;;;;15.77;9.45;;;9.90;93.40;;;;;;4122351;28;20054;-66
2022/04/19 06:22:13;;;;;;;15.50;9.27;;;10.00;94.60;;;;;;4124945;28;20049;-64
2022/04/19 06:24:13;;;;;;;14.93;8.82;;;10.10;94.80;;;;;;4123958;28;20137;-64
2022/04/19 06:26:14;;;;;;;11.23;7.82;;;10.20;94.60;;;;;;4124267;28;20048;-64
2022/04/19 06:28:16;;;;;;;12.57;8.50;;;10.30;95.00;;;;;;4126122;28;20045;-64
2022/04/19 06:30:17;;;;;;;15.18;8.27;;;10.50;95.70;;;;;;4123856;28;20140;-64
2022/04/19 06:32:17;;;;;;;12.27;7.88;;;10.60;95.90;;;;;;4124792;28;20201;-64
2022/04/19 06:34:18;;;;;;;14.00;8.80;;;10.80;97.00;;;;;;4123174;28;20038;-64
2022/04/19 06:36:18;;;;;;;15.52;9.50;;;10.90;96.90;;;;;;4124042;28;20370;-64
2022/04/19 06:38:19;;;;;;;14.15;8.38;;;11.00;94.70;;;;;;4122937;28;20501;-64
2022/04/19 06:40:20;;;;;;;14.00;8.18;;;11.20;95.80;;;;;;4117810;28;20041;-64
2022/04/19 06:42:20;;;;;;;15.27;9.00;;;11.50;95.30;;;;;;4123753;28;20031;-64
2022/04/19 06:44:21;;;;;;;12.55;8.02;;;11.90;95.30;;;;;;4122644;28;20058;-64
2022/04/19 06:46:22;;;;;;;12.13;7.82;;;12.40;93.30;;;;;;4123645;28;20049;-64
2022/04/19 06:48:23;;;;;;;10.98;8.05;;;12.80;91.60;;;;;;4120595;28;20037;-65
2022/04/19 06:50:24;;;;;;;14.52;8.95;;;13.20;91.10;;;;;;4123342;28;20432;-65
2022/04/19 06:52:25;;;;;;;13.23;8.77;;;13.50;86.00;;;;;;4124761;28;20034;-64
2022/04/19 06:54:25;;;;;;;14.40;9.00;;;13.90;86.90;;;;;;4124905;28;20062;-65
2022/04/19 06:56:26;;;;;;;12.60;8.45;;;14.20;81.50;;;;;;4122687;28;20046;-64
2022/04/19 06:58:27;;;;;;;15.77;8.52;;;14.70;84.30;;;;;;4124840;28;20478;-64
2022/04/19 07:00:27;;;;;;;13.95;7.85;;;14.90;78.80;;;;;;4124356;28;21206;-65
2022/04/19 07:02:28;;;;;;;13.73;8.13;;;15.20;77.60;;;;;;4124838;28;20057;-64
2022/04/19 07:04:29;;;;;;;13.32;7.88;;;15.30;75.40;;;;;;4124610;28;20038;-65
2022/04/19 07:06:29;;;;;;;17.30;8.80;;;15.70;75.60;;;;;;4123527;28;20125;-64
2022/04/19 07:08:30;;;;;;;14.25;8.60;;;15.90;73.10;;;;;;4127398;28;20038;-64
2022/04/19 07:10:31;;;;;;;18.20;8.70;;;16.10;72.20;;;;;;4123017;28;20521;-65
2022/04/19 07:12:31;;;;;;;14.45;8.73;;;16.30;72.30;;;;;;4123336;28;20046;-65
2022/04/19 07:14:32;;;;;;;11.30;7.70;;;16.60;70.90;;;;;;4124546;28;20105;-65
2022/04/19 07:16:32;;;;;;;14.68;8.35;;;16.80;74.10;;;;;;4125411;28;20065;-65
2022/04/19 07:18:33;;;;;;;15.32;8.80;;;17.10;73.10;;;;;;4128000;28;20174;-65
2022/04/19 07:27:33;;;;;;;13.52;8.43;;;17.50;68.30;;;;;;4126137;28;20038;-65
2022/04/19 07:29:34;;;;;;;13.90;8.17;;;17.70;68.40;;;;;;4135379;28;20053;-65
2022/04/19 07:31:34;;;;;;;12.50;7.70;;;17.80;72.30;;;;;;4126785;28;20038;-65
2022/04/19 07:33:39;;;;;;;13.63;7.97;;;18.10;71.90;;;;;;4127470;28;20046;-65
2022/04/19 07:35:40;;;;;;;12.75;7.32;;;18.20;70.60;;;;;;4127259;28;20117;-65
2022/04/19 07:37:41;;;;;;;13.52;8.45;;;18.20;63.80;;;;;;4125710;28;20062;-65
2022/04/19 07:39:41;;;;;;;16.40;8.02;;;17.80;62.50;;;;;;4126167;28;20030;-65
2022/04/19 07:41:45;;;;;;;13.23;8.05;;;17.70;65.20;;;;;;4127414;28;20042;-65
2022/04/19 07:43:47;;;;;;;12.80;7.32;;;17.60;64.20;;;;;;4126894;28;20253;-65
2022/04/19 07:45:47;;;;;;;16.38;8.02;;;17.80;68.40;;;;;;4125861;28;20134;-65
2022/04/19 07:47:48;;;;;;;12.25;6.97;;;17.60;61.40;;;;;;4125207;28;20034;-66
2022/04/19 07:49:49;;;;;;;12.75;7.53;;;17.90;65.80;;;;;;4125234;28;20049;-65
2022/04/19 07:51:50;;;;;;;10.93;7.15;;;17.80;63.40;;;;;;4125300;28;20093;-65
2022/04/19 07:53:51;;;;;;;14.27;7.95;;;17.80;62.90;;;;;;4126524;28;20046;-65
2022/04/19 07:55:55;;;;;;;13.65;7.30;;;17.50;62.30;;;;;;4125242;28;20045;-65
2022/04/19 07:57:55;;;;;;;16.60;7.55;;;17.60;63.60;;;;;;4126405;28;20045;-65
2022/04/19 07:59:56;;;;;;;14.90;7.25;;;17.30;59.50;;;;;;4125924;28;20026;-65
2022/04/19 08:01:56;;;;;;;11.75;7.03;;;17.30;61.70;;;;;;4125437;28;20476;-65
2022/04/19 08:03:57;;;;;;;11.65;7.13;;;17.50;66.40;;;;;;4126117;28;20059;-65
2022/04/19 08:05:58;;;;;;;13.75;6.68;;;17.40;61.40;;;;;;4125421;28;20046;-66
2022/04/19 08:07:58;;;;;;;12.00;6.28;;;17.50;60.70;;;;;;4126580;28;20038;-65
2022/04/19 08:10:00;;;;;;;10.25;6.22;;;17.50;64.90;;;;;;4126294;28;20109;-65
2022/04/19 08:12:01;;;;;;;8.82;5.60;;;17.80;63.30;;;;;;4123330;28;20047;-65
2022/04/19 08:14:01;;;;;;;11.88;6.65;;;18.00;67.60;;;;;;4126700;28;20516;-65
2022/04/19 08:16:02;;;;;;;10.27;6.50;;;18.20;63.60;;;;;;4125001;28;20030;-66
2022/04/19 08:18:03;;;;;;;10.00;6.32;;;18.20;63.90;;;;;;4126774;28;20044;-65
2022/04/19 08:20:07;;;;;;;10.48;6.78;;;18.40;64.80;;;;;;4126956;28;21224;-65
2022/04/19 08:22:08;;;;;;;9.85;5.90;;;18.50;60.10;;;;;;4125522;28;20414;-66
2022/04/19 08:24:09;;;;;;;9.40;5.65;;;18.60;61.20;;;;;;4124107;28;20027;-65
2022/04/19 08:26:09;;;;;;;10.13;6.05;;;18.60;62.40;;;;;;4125534;28;20045;-66
2022/04/19 08:28:10;;;;;;;9.95;6.30;;;18.70;60.20;;;;;;4126218;28;20061;-65
2022/04/19 08:30:12;;;;;;;9.00;6.20;;;18.60;58.40;;;;;;4124796;28;20063;-67
2022/04/19 08:32:13;;;;;;;11.60;6.70;;;18.60;58.90;;;;;;4126385;28;20064;-66
2022/04/19 08:34:14;;;;;;;12.80;6.20;;;18.60;59.30;;;;;;4124967;28;20492;-65
2022/04/19 08:36:15;;;;;;;11.57;6.28;;;18.70;62.60;;;;;;4125435;28;20490;-65
2022/04/19 08:38:15;;;;;;;10.73;6.30;;;18.80;61.90;;;;;;4127047;28;20037;-65
2022/04/19 08:40:17;;;;;;;10.55;5.63;;;18.50;63.40;;;;;;4126336;28;20049;-65
2022/04/19 08:42:17;;;;;;;8.88;5.40;;;18.80;62.10;;;;;;4126194;28;20035;-66
2022/04/19 08:44:18;;;;;;;8.88;6.00;;;18.50;59.10;;;;;;4122475;28;20031;-64
2022/04/19 08:46:19;;;;;;;11.85;6.53;;;18.80;64.40;;;;;;4122630;28;20076;-65
2022/04/19 08:48:27;;;;;;;8.48;5.43;;;18.80;60.30;;;;;;4125527;28;20034;-65
2022/04/19 08:50:29;;;;;;;8.18;5.18;;;18.90;59.70;;;;;;4124042;28;20049;-65
2022/04/19 08:52:34;;;;;;;12.38;6.45;;;19.10;59.40;;;;;;4126095;28;20076;-65
2022/04/19 08:59:15;;;;;;;11.25;6.35;;;19.20;58.40;;;;;;4122036;28;20134;-65
2022/04/19 09:01:15;;;;;;;7.72;5.25;;;19.10;57.00;;;;;;4123906;28;20038;-65
2022/04/19 09:03:16;;;;;;;8.25;5.47;;;19.20;62.10;;;;;;4125105;28;20065;-65
2022/04/19 09:05:21;;;;;;;10.35;6.20;;;19.20;58.80;;;;;;4124789;28;20034;-65
2022/04/19 09:07:36;;;;;;;8.60;5.47;;;19.20;58.10;;;;;;4124938;28;20092;-65
2022/04/19 09:09:38;;;;;;;9.52;5.55;;;19.30;58.10;;;;;;4122943;28;20039;-65
2022/04/19 09:11:38;;;;;;;9.40;5.70;;;19.20;59.20;;;;;;4124014;28;20038;-65
2022/04/19 09:13:39;;;;;;;10.13;6.63;;;19.20;57.90;;;;;;4124738;28;20041;-65
2022/04/19 09:15:45;;;;;;;13.73;6.15;;;18.90;55.90;;;;;;4125708;28;20038;-65
2022/04/19 09:17:48;;;;;;;8.75;5.90;;;19.00;58.40;;;;;;4122849;28;20125;-65
2022/04/19 09:19:49;;;;;;;11.88;6.40;;;19.00;57.80;;;;;;4125524;28;20387;-65
2022/04/19 09:21:50;;;;;;;10.52;4.85;;;18.80;57.10;;;;;;4122960;28;20038;-65
2022/04/19 09:23:53;;;;;;;5.95;3.83;;;18.70;56.00;;;;;;4126792;28;20394;-65
2022/04/19 09:25:56;;;;;;;7.60;3.85;;;18.70;56.40;;;;;;4125583;28;20042;-65
2022/04/19 09:27:58;;;;;;;7.80;4.50;;;18.50;54.90;;;;;;4124175;28;20034;-65
2022/04/19 09:30:22;;;;;;;6.85;3.85;;;18.30;55.90;;;;;;4125092;28;20051;-66
2022/04/19 09:32:23;;;;;;;8.32;3.72;;;18.30;56.00;;;;;;4123588;28;20074;-65
2022/04/19 09:34:29;;;;;;;6.20;3.90;;;18.40;56.40;;;;;;4126039;28;20051;-64
2022/04/19 09:36:31;;;;;;;6.65;4.15;;;18.50;55.20;;;;;;4122781;28;20039;-65
2022/04/19 09:38:37;;;;;;;8.35;4.30;;;18.50;55.80;;;;;;4125078;28;20375;-66
2022/04/19 09:40:46;;;;;;;6.60;3.65;;;18.60;56.30;;;;;;4123174;28;20042;-65
2022/04/19 09:42:46;;;;;;;5.50;3.83;;;18.30;55.00;;;;;;4125131;28;20038;-66
2022/04/19 09:44:53;;;;;;;7.55;3.58;;;18.60;55.50;;;;;;4123750;28;20455;-66
2022/04/19 09:47:07;;;;;;;5.18;3.70;;;18.50;55.90;;;;;;4124214;28;20046;-66
2022/04/19 09:49:08;;;;;;;5.15;3.45;;;18.60;56.60;;;;;;4124021;28;20041;-66
2022/04/19 09:51:12;;;;;;;10.35;4.05;;;18.70;55.40;;;;;;4123299;28;20050;-66
2022/04/19 09:53:17;;;;;;;7.30;3.75;;;18.80;56.40;;;;;;4124778;28;20037;-66
2022/04/19 09:55:18;;;;;;;9.43;3.80;;;18.70;54.60;;;;;;4123805;28;20042;-66
2022/04/19 09:57:19;;;;;;;8.13;3.20;;;18.90;55.30;;;;;;4123695;28;20046;-67
2022/04/19 09:59:24;;;;;;;4.35;3.03;;;18.90;54.50;;;;;;4124518;28;20062;-66
2022/04/19 10:08:25;;;;;;;6.13;4.05;;;18.90;54.80;;;;;;4125256;28;20061;-66
2022/04/19 10:10:26;;;;;;;8.57;4.03;;;18.80;55.00;;;;;;4123669;28;20054;-66
2022/04/19 10:12:28;;;;;;;5.90;3.58;;;18.70;55.30;;;;;;4123414;28;20190;-66
2022/04/19 10:14:29;;;;;;;6.93;3.95;;;18.60;54.40;;;;;;4124438;28;20092;-66
2022/04/19 10:16:31;;;;;;;5.75;3.50;;;18.60;54.80;;;;;;4121748;28;20046;-66
2022/04/19 10:18:34;;;;;;;6.95;3.60;;;18.70;55.20;;;;;;4123937;28;20031;-66
2022/04/19 10:20:58;;;;;;;6.75;3.92;;;18.80;55.50;;;;;;4122397;28;20034;-65
2022/04/19 10:23:09;;;;;;;8.45;3.70;;;18.80;56.70;;;;;;4121761;28;20043;-68
2022/04/19 10:25:13;;;;;;;8.77;4.07;;;18.80;56.50;;;;;;4124463;28;20569;-65
2022/04/19 10:27:13;;;;;;;5.75;3.78;;;18.90;54.80;;;;;;4125392;28;20039;-66
2022/04/19 10:29:24;;;;;;;10.70;4.15;;;18.70;54.90;;;;;;4129237;28;20048;-64
2022/04/19 10:31:35;;;;;;;6.80;3.95;;;18.70;56.70;;;;;;4122792;28;20096;-64
2022/04/19 10:33:39;;;;;;;6.43;3.63;;;18.40;56.10;;;;;;4125416;28;20069;-64
2022/04/19 10:36:17;;;;;;;8.23;4.53;;;18.70;58.10;;;;;;4124662;28;20873;-64
2022/04/19 10:38:21;;;;;;;13.25;4.78;;;18.80;58.40;;;;;;4124572;28;20035;-66
2022/04/19 10:40:23;;;;;;;6.90;4.03;;;18.80;58.00;;;;;;4123393;28;20220;-65
2022/04/19 10:42:32;;;;;;;10.80;4.65;;;18.90;56.90;;;;;;4125364;28;20486;-65
2022/04/19 10:44:41;;;;;;;9.80;4.22;;;18.80;56.70;;;;;;4124789;28;20030;-65
2022/04/19 10:46:43;;;;;;;6.20;4.00;;;19.00;57.70;;;;;;4123114;28;20040;-65
2022/04/19 10:49:21;;;;;;;5.90;3.85;;;19.20;57.50;;;;;;4121284;28;20172;-65
2022/04/19 10:51:28;;;;;;;7.13;4.20;;;19.30;56.40;;;;;;4124665;28;20038;-65
2022/04/19 10:53:34;;;;;;;6.60;3.95;;;19.10;55.80;;;;;;4128172;28;20050;-66
2022/04/19 10:55:37;;;;;;;7.25;3.80;;;19.20;57.00;;;;;;4126700;28;20114;-66
2022/04/19 11:00:29;;;;;;;8.45;4.10;;;19.30;56.80;;;;;;4126206;28;20368;-68
2022/04/19 11:02:35;;;;;;;11.85;4.70;;;19.20;54.40;;;;;;4125189;28;20490;-67
2022/04/19 11:04:36;;;;;;;6.97;4.05;;;19.10;54.50;;;;;;4127240;28;20433;-65
2022/04/19 11:06:40;;;;;;;6.25;3.90;;;19.20;54.70;;;;;;4127352;28;20041;-66